Estación Meteorológica Peña el Pijo (Robertgarden) [ 11/12/18 20:34:01 CET ]

Fecha Hora Presion(HPa) Temp (°C) Humedad % Rocio (°C) Viento ( m/s) Direccion Lluvia 1Hora(mm) Lluvia 24H(mm) LLuvia Total(mm)
2018-Mar-12 01:01:57 1001.900 4.2 82 1.4       8.28 138.82
2018-Mar-12 02:03:08 1002.000 4.2 82 1.4       8.28 138.82
2018-Mar-12 03:01:48 1002.000 4.3 81 1.3 3.5 WNW   8.28 138.82
2018-Mar-12 04:01:58 1001.500 4.1 80 1.0       8.28 138.82
2018-Mar-12 05:01:41 1001.900 4.0 79 0.7 2.0 WNW   8.28 138.82
2018-Mar-12 06:01:50 1002.100 3.9 79 0.6       8.28 138.82
2018-Mar-12 07:01:48 1002.800 4.3 77 0.6 1.7 NW   8.28 138.82
2018-Mar-12 08:01:47 1003.300 4.4 77 0.7       8.28 138.82
2018-Mar-12 09:01:52 1003.800 6.2 72 1.5 1.4 NW   9.32 139.86
2018-Mar-12 10:31:58 1004.600 8.4 62 1.5 5.2 NNE 5.18 14.50 145.04
2018-Mar-12 11:01:51 1004.800 8.8 61 1.7 1.1 NW 1.03 15.02 145.55
2018-Mar-12 12:01:53 1005.400 9.3 58 1.4 3.1 NW   15.02 145.55
2018-Mar-12 13:01:49 1005.800 9.9 56 1.5 3.2 N   15.02 145.55
2018-Mar-12 14:01:56 1006.400 11.5 50 1.4       15.02 145.55
2018-Mar-12 15:01:53 1006.400 13.6 47 2.4       15.02 145.55
2018-Mar-12 16:01:43 1006.800 13.2 48 2.4 1.0 N   13.98 145.55
2018-Mar-12 17:01:35 1006.900 12.6 48 1.8 2.0 NW   11.39 145.55
2018-Mar-12 18:01:43 1007.200 10.9 52 1.4 2.4 N   10.87 145.55
2018-Mar-12 19:01:42 1007.900 8.5 58 0.7       8.80 145.55
2018-Mar-12 20:01:43 1008.200 7.5 63 0.9       8.80 145.55
2018-Mar-12 21:02:00 1008.400 6.9 65 0.8       8.28 145.55
2018-Mar-12 22:01:54 1008.200 6.5 68 1.0       7.25 145.55
2018-Mar-12 23:01:42 1008.600 5.6 70 0.6       7.25 145.55

Temperatura Máxima:13°    Temperatura Mínima:
Presión Máxima:1008.600 Hpa    Presión Mínima:1001.500 Hpa


Volver